sensor_id;sensor_type;location;lat;lon;timestamp;temperature;humidity
21759;DHT22;11041;50.854;20.580;2023-09-08T00:01:04;13.80;99.90
21759;DHT22;11041;50.854;20.580;2023-09-08T00:03:35;13.70;99.90
21759;DHT22;11041;50.854;20.580;2023-09-08T00:06:04;13.80;99.90
21759;DHT22;11041;50.854;20.580;2023-09-08T00:08:31;13.70;99.90
21759;DHT22;11041;50.854;20.580;2023-09-08T00:10:58;13.70;99.90
21759;DHT22;11041;50.854;20.580;2023-09-08T00:13:28;13.80;99.90
21759;DHT22;11041;50.854;20.580;2023-09-08T00:15:58;13.80;99.90
21759;DHT22;11041;50.854;20.580;2023-09-08T00:18:24;13.80;99.90
21759;DHT22;11041;50.854;20.580;2023-09-08T00:20:54;13.80;99.90
21759;DHT22;11041;50.854;20.580;2023-09-08T00:23:20;13.70;99.90
21759;DHT22;11041;50.854;20.580;2023-09-08T00:25:51;13.70;99.90
21759;DHT22;11041;50.854;20.580;2023-09-08T00:28:17;13.80;99.90
21759;DHT22;11041;50.854;20.580;2023-09-08T00:30:46;13.70;99.90
21759;DHT22;11041;50.854;20.580;2023-09-08T00:33:13;13.70;99.90
21759;DHT22;11041;50.854;20.580;2023-09-08T00:35:48;13.70;99.90
21759;DHT22;11041;50.854;20.580;2023-09-08T00:38:20;13.70;99.90
21759;DHT22;11041;50.854;20.580;2023-09-08T00:40:51;13.70;99.90
21759;DHT22;11041;50.854;20.580;2023-09-08T00:43:17;13.70;99.90
21759;DHT22;11041;50.854;20.580;2023-09-08T00:45:46;13.70;99.90
21759;DHT22;11041;50.854;20.580;2023-09-08T00:48:20;13.50;99.90
21759;DHT22;11041;50.854;20.580;2023-09-08T00:50:51;13.50;99.90
21759;DHT22;11041;50.854;20.580;2023-09-08T00:53:18;13.60;99.90
21759;DHT22;11041;50.854;20.580;2023-09-08T00:55:48;13.50;99.90
21759;DHT22;11041;50.854;20.580;2023-09-08T00:58:17;13.50;99.90
21759;DHT22;11041;50.854;20.580;2023-09-08T01:00:47;13.60;99.90
21759;DHT22;11041;50.854;20.580;2023-09-08T01:03:16;13.40;99.90
21759;DHT22;11041;50.854;20.580;2023-09-08T01:05:45;13.30;99.90
21759;DHT22;11041;50.854;20.580;2023-09-08T01:08:13;13.20;99.90
21759;DHT22;11041;50.854;20.580;2023-09-08T01:10:43;13.20;99.90
21759;DHT22;11041;50.854;20.580;2023-09-08T01:13:14;13.20;99.90
21759;DHT22;11041;50.854;20.580;2023-09-08T01:15:43;13.30;99.90
21759;DHT22;11041;50.854;20.580;2023-09-08T01:18:11;13.30;99.90
21759;DHT22;11041;50.854;20.580;2023-09-08T01:21:03;13.40;99.90
21759;DHT22;11041;50.854;20.580;2023-09-08T01:26:48;13.60;99.90
21759;DHT22;11041;50.854;20.580;2023-09-08T01:29:16;13.60;99.90
21759;DHT22;11041;50.854;20.580;2023-09-08T01:31:44;13.30;99.90
21759;DHT22;11041;50.854;20.580;2023-09-08T01:34:14;13.10;99.90
21759;DHT22;11041;50.854;20.580;2023-09-08T01:36:45;13.20;99.90
21759;DHT22;11041;50.854;20.580;2023-09-08T01:39:14;13.30;99.90
21759;DHT22;11041;50.854;20.580;2023-09-08T01:41:43;13.40;99.90
21759;DHT22;11041;50.854;20.580;2023-09-08T01:44:12;13.40;99.90
21759;DHT22;11041;50.854;20.580;2023-09-08T01:46:42;13.40;99.90
21759;DHT22;11041;50.854;20.580;2023-09-08T01:49:11;13.50;99.90
21759;DHT22;11041;50.854;20.580;2023-09-08T01:51:48;13.50;99.90
21759;DHT22;11041;50.854;20.580;2023-09-08T01:54:16;13.50;99.90
21759;DHT22;11041;50.854;20.580;2023-09-08T01:56:49;13.50;99.90
21759;DHT22;11041;50.854;20.580;2023-09-08T01:59:17;13.60;99.90
21759;DHT22;11041;50.854;20.580;2023-09-08T02:01:45;13.40;99.90
21759;DHT22;11041;50.854;20.580;2023-09-08T02:04:16;13.40;99.90
21759;DHT22;11041;50.854;20.580;2023-09-08T02:06:49;13.30;99.90
21759;DHT22;11041;50.854;20.580;2023-09-08T02:09:20;13.30;99.90
21759;DHT22;11041;50.854;20.580;2023-09-08T02:11:47;13.30;99.90
21759;DHT22;11041;50.854;20.580;2023-09-08T02:14:16;13.30;99.90
21759;DHT22;11041;50.854;20.580;2023-09-08T02:16:48;13.40;99.90
21759;DHT22;11041;50.854;20.580;2023-09-08T02:19:16;13.40;99.90
21759;DHT22;11041;50.854;20.580;2023-09-08T02:21:44;13.40;99.90
21759;DHT22;11041;50.854;20.580;2023-09-08T02:24:13;13.30;99.90
21759;DHT22;11041;50.854;20.580;2023-09-08T02:26:41;13.20;99.90
21759;DHT22;11041;50.854;20.580;2023-09-08T02:29:15;13.20;99.90
21759;DHT22;11041;50.854;20.580;2023-09-08T02:31:42;13.20;99.90
21759;DHT22;11041;50.854;20.580;2023-09-08T02:34:15;13.20;99.90
21759;DHT22;11041;50.854;20.580;2023-09-08T02:36:44;13.20;99.90
21759;DHT22;11041;50.854;20.580;2023-09-08T02:39:14;13.30;99.90
21759;DHT22;11041;50.854;20.580;2023-09-08T02:41:40;13.30;99.90
21759;DHT22;11041;50.854;20.580;2023-09-08T02:44:07;13.30;99.90
21759;DHT22;11041;50.854;20.580;2023-09-08T02:46:38;13.20;99.90
21759;DHT22;11041;50.854;20.580;2023-09-08T02:49:09;13.10;99.90
21759;DHT22;11041;50.854;20.580;2023-09-08T02:51:35;13.00;99.90
21759;DHT22;11041;50.854;20.580;2023-09-08T02:54:02;13.00;99.90
21759;DHT22;11041;50.854;20.580;2023-09-08T02:56:29;13.10;99.90
21759;DHT22;11041;50.854;20.580;2023-09-08T02:58:59;13.10;99.90
21759;DHT22;11041;50.854;20.580;2023-09-08T03:01:25;13.10;99.90
21759;DHT22;11041;50.854;20.580;2023-09-08T03:03:52;13.00;99.90
21759;DHT22;11041;50.854;20.580;2023-09-08T03:06:19;13.10;99.90
21759;DHT22;11041;50.854;20.580;2023-09-08T03:08:48;13.10;99.90
21759;DHT22;11041;50.854;20.580;2023-09-08T03:11:14;13.10;99.90
21759;DHT22;11041;50.854;20.580;2023-09-08T03:13:41;13.20;99.90
21759;DHT22;11041;50.854;20.580;2023-09-08T03:16:08;13.00;99.90
21759;DHT22;11041;50.854;20.580;2023-09-08T03:18:37;13.10;99.90
21759;DHT22;11041;50.854;20.580;2023-09-08T03:21:06;13.00;99.90
21759;DHT22;11041;50.854;20.580;2023-09-08T03:23:41;13.10;99.90
21759;DHT22;11041;50.854;20.580;2023-09-08T03:26:09;13.10;99.90
21759;DHT22;11041;50.854;20.580;2023-09-08T03:28:41;13.10;99.90
21759;DHT22;11041;50.854;20.580;2023-09-08T03:31:09;12.90;99.90
21759;DHT22;11041;50.854;20.580;2023-09-08T03:33:38;12.90;99.90
21759;DHT22;11041;50.854;20.580;2023-09-08T03:36:05;12.80;99.90
21759;DHT22;11041;50.854;20.580;2023-09-08T03:38:32;12.90;99.90
21759;DHT22;11041;50.854;20.580;2023-09-08T03:40:58;12.90;99.90
21759;DHT22;11041;50.854;20.580;2023-09-08T03:43:25;12.90;99.90
21759;DHT22;11041;50.854;20.580;2023-09-08T03:45:54;12.90;99.90
21759;DHT22;11041;50.854;20.580;2023-09-08T03:48:23;12.90;99.90
21759;DHT22;11041;50.854;20.580;2023-09-08T03:50:52;12.90;99.90
21759;DHT22;11041;50.854;20.580;2023-09-08T03:53:19;12.80;99.90
21759;DHT22;11041;50.854;20.580;2023-09-08T03:55:46;12.80;99.90
21759;DHT22;11041;50.854;20.580;2023-09-08T03:58:13;12.80;99.90
21759;DHT22;11041;50.854;20.580;2023-09-08T04:00:42;12.90;99.90
21759;DHT22;11041;50.854;20.580;2023-09-08T04:03:16;12.90;99.90
21759;DHT22;11041;50.854;20.580;2023-09-08T04:05:42;12.90;99.90
21759;DHT22;11041;50.854;20.580;2023-09-08T04:08:11;12.90;99.90
21759;DHT22;11041;50.854;20.580;2023-09-08T04:10:43;13.00;99.90
21759;DHT22;11041;50.854;20.580;2023-09-08T04:13:11;12.90;99.90
21759;DHT22;11041;50.854;20.580;2023-09-08T04:15:38;12.90;99.90
21759;DHT22;11041;50.854;20.580;2023-09-08T04:18:07;12.90;99.90
21759;DHT22;11041;50.854;20.580;2023-09-08T04:20:34;12.90;99.90
21759;DHT22;11041;50.854;20.580;2023-09-08T04:23:11;12.90;99.90
21759;DHT22;11041;50.854;20.580;2023-09-08T04:25:40;12.90;99.90
21759;DHT22;11041;50.854;20.580;2023-09-08T04:28:09;13.00;99.90
21759;DHT22;11041;50.854;20.580;2023-09-08T04:30:37;13.00;99.90
21759;DHT22;11041;50.854;20.580;2023-09-08T04:33:10;13.00;99.90
21759;DHT22;11041;50.854;20.580;2023-09-08T04:35:43;13.00;99.90
21759;DHT22;11041;50.854;20.580;2023-09-08T04:38:20;13.00;99.90
21759;DHT22;11041;50.854;20.580;2023-09-08T04:40:49;13.00;99.90
21759;DHT22;11041;50.854;20.580;2023-09-08T04:43:30;13.00;99.90
21759;DHT22;11041;50.854;20.580;2023-09-08T04:45:57;13.00;99.90
21759;DHT22;11041;50.854;20.580;2023-09-08T04:48:24;13.10;99.90
21759;DHT22;11041;50.854;20.580;2023-09-08T04:50:53;13.10;99.90
21759;DHT22;11041;50.854;20.580;2023-09-08T04:53:21;13.20;99.90
21759;DHT22;11041;50.854;20.580;2023-09-08T04:55:47;13.20;99.90
21759;DHT22;11041;50.854;20.580;2023-09-08T04:58:16;13.10;99.90
21759;DHT22;11041;50.854;20.580;2023-09-08T05:00:42;13.20;99.90
21759;DHT22;11041;50.854;20.580;2023-09-08T05:03:09;13.20;99.90
21759;DHT22;11041;50.854;20.580;2023-09-08T05:05:40;13.30;99.90
21759;DHT22;11041;50.854;20.580;2023-09-08T05:08:07;13.30;99.90
21759;DHT22;11041;50.854;20.580;2023-09-08T05:10:33;13.40;99.90
21759;DHT22;11041;50.854;20.580;2023-09-08T05:13:00;13.40;99.90
21759;DHT22;11041;50.854;20.580;2023-09-08T05:15:26;13.50;99.90
21759;DHT22;11041;50.854;20.580;2023-09-08T05:17:54;13.60;99.90
21759;DHT22;11041;50.854;20.580;2023-09-08T05:20:21;13.70;99.90
21759;DHT22;11041;50.854;20.580;2023-09-08T05:22:50;13.80;99.90
21759;DHT22;11041;50.854;20.580;2023-09-08T05:25:18;13.90;99.90
21759;DHT22;11041;50.854;20.580;2023-09-08T05:27:46;14.00;99.90
21759;DHT22;11041;50.854;20.580;2023-09-08T05:30:16;14.10;99.90
21759;DHT22;11041;50.854;20.580;2023-09-08T05:32:45;14.20;99.90
21759;DHT22;11041;50.854;20.580;2023-09-08T05:35:16;14.20;99.90
21759;DHT22;11041;50.854;20.580;2023-09-08T05:37:45;14.30;99.90
21759;DHT22;11041;50.854;20.580;2023-09-08T05:40:12;14.40;99.90
21759;DHT22;11041;50.854;20.580;2023-09-08T05:42:38;14.50;99.90
21759;DHT22;11041;50.854;20.580;2023-09-08T05:45:05;14.60;99.90
21759;DHT22;11041;50.854;20.580;2023-09-08T05:47:32;14.70;99.90
21759;DHT22;11041;50.854;20.580;2023-09-08T05:50:01;14.80;99.90
21759;DHT22;11041;50.854;20.580;2023-09-08T05:52:29;14.90;99.90
21759;DHT22;11041;50.854;20.580;2023-09-08T05:54:57;15.00;99.90
21759;DHT22;11041;50.854;20.580;2023-09-08T05:57:24;15.10;99.90
21759;DHT22;11041;50.854;20.580;2023-09-08T05:59:50;15.20;99.90
21759;DHT22;11041;50.854;20.580;2023-09-08T06:02:21;15.30;99.90
21759;DHT22;11041;50.854;20.580;2023-09-08T06:04:53;15.40;99.90
21759;DHT22;11041;50.854;20.580;2023-09-08T06:07:22;15.50;99.90
21759;DHT22;11041;50.854;20.580;2023-09-08T06:09:50;15.60;99.90
21759;DHT22;11041;50.854;20.580;2023-09-08T06:12:20;15.70;99.90
21759;DHT22;11041;50.854;20.580;2023-09-08T06:14:46;15.80;99.90
21759;DHT22;11041;50.854;20.580;2023-09-08T06:17:15;15.80;99.90
21759;DHT22;11041;50.854;20.580;2023-09-08T06:19:44;16.00;99.90
21759;DHT22;11041;50.854;20.580;2023-09-08T06:22:11;16.10;99.90
21759;DHT22;11041;50.854;20.580;2023-09-08T06:24:37;16.20;99.90
21759;DHT22;11041;50.854;20.580;2023-09-08T06:27:07;16.30;99.90
21759;DHT22;11041;50.854;20.580;2023-09-08T06:29:39;16.50;99.90
21759;DHT22;11041;50.854;20.580;2023-09-08T06:32:10;16.80;99.90
21759;DHT22;11041;50.854;20.580;2023-09-08T06:34:38;16.80;99.90
21759;DHT22;11041;50.854;20.580;2023-09-08T06:37:10;16.90;99.90
21759;DHT22;11041;50.854;20.580;2023-09-08T06:39:40;17.10;99.90
21759;DHT22;11041;50.854;20.580;2023-09-08T06:42:08;17.20;99.90
21759;DHT22;11041;50.854;20.580;2023-09-08T06:44:35;17.30;99.90
21759;DHT22;11041;50.854;20.580;2023-09-08T06:47:03;17.40;99.90
21759;DHT22;11041;50.854;20.580;2023-09-08T06:49:35;17.50;99.90
21759;DHT22;11041;50.854;20.580;2023-09-08T06:52:03;17.70;99.90
21759;DHT22;11041;50.854;20.580;2023-09-08T06:54:32;17.80;99.90
21759;DHT22;11041;50.854;20.580;2023-09-08T06:57:04;17.90;99.90
21759;DHT22;11041;50.854;20.580;2023-09-08T06:59:33;18.00;99.90
21759;DHT22;11041;50.854;20.580;2023-09-08T07:02:00;18.20;99.90
21759;DHT22;11041;50.854;20.580;2023-09-08T07:04:33;18.30;99.90
21759;DHT22;11041;50.854;20.580;2023-09-08T07:07:03;18.40;99.90
21759;DHT22;11041;50.854;20.580;2023-09-08T07:09:36;18.50;99.90
21759;DHT22;11041;50.854;20.580;2023-09-08T07:12:04;18.70;99.90
21759;DHT22;11041;50.854;20.580;2023-09-08T07:14:32;18.80;99.90
21759;DHT22;11041;50.854;20.580;2023-09-08T07:16:59;18.90;99.90
21759;DHT22;11041;50.854;20.580;2023-09-08T07:19:26;19.00;99.90
21759;DHT22;11041;50.854;20.580;2023-09-08T07:21:53;19.10;99.90
21759;DHT22;11041;50.854;20.580;2023-09-08T07:24:22;19.30;99.90
21759;DHT22;11041;50.854;20.580;2023-09-08T07:26:50;19.30;99.90
21759;DHT22;11041;50.854;20.580;2023-09-08T07:29:17;19.40;99.90
21759;DHT22;11041;50.854;20.580;2023-09-08T07:31:44;19.50;99.90
21759;DHT22;11041;50.854;20.580;2023-09-08T07:34:10;19.80;99.90
21759;DHT22;11041;50.854;20.580;2023-09-08T07:36:38;19.90;99.90
21759;DHT22;11041;50.854;20.580;2023-09-08T07:39:05;20.00;99.90
21759;DHT22;11041;50.854;20.580;2023-09-08T07:41:32;20.00;99.90
21759;DHT22;11041;50.854;20.580;2023-09-08T07:43:59;20.10;99.90
21759;DHT22;11041;50.854;20.580;2023-09-08T07:46:27;20.20;99.90
21759;DHT22;11041;50.854;20.580;2023-09-08T07:48:57;20.20;99.90
21759;DHT22;11041;50.854;20.580;2023-09-08T07:51:25;20.40;99.90
21759;DHT22;11041;50.854;20.580;2023-09-08T07:53:55;20.70;99.90
21759;DHT22;11041;50.854;20.580;2023-09-08T07:56:22;20.70;99.90
21759;DHT22;11041;50.854;20.580;2023-09-08T07:58:51;20.70;99.90
21759;DHT22;11041;50.854;20.580;2023-09-08T08:01:18;20.80;99.90
21759;DHT22;11041;50.854;20.580;2023-09-08T08:03:45;21.00;99.90
21759;DHT22;11041;50.854;20.580;2023-09-08T08:06:12;21.00;99.90
21759;DHT22;11041;50.854;20.580;2023-09-08T08:08:39;21.10;99.90
21759;DHT22;11041;50.854;20.580;2023-09-08T08:11:14;21.10;99.90
21759;DHT22;11041;50.854;20.580;2023-09-08T08:13:45;21.30;99.90
21759;DHT22;11041;50.854;20.580;2023-09-08T08:16:12;21.40;99.90
21759;DHT22;11041;50.854;20.580;2023-09-08T08:18:38;21.40;99.90
21759;DHT22;11041;50.854;20.580;2023-09-08T08:21:05;21.40;99.90
21759;DHT22;11041;50.854;20.580;2023-09-08T08:23:34;21.50;99.90
21759;DHT22;11041;50.854;20.580;2023-09-08T08:26:05;21.60;99.90
21759;DHT22;11041;50.854;20.580;2023-09-08T08:28:34;21.60;99.90
21759;DHT22;11041;50.854;20.580;2023-09-08T08:31:01;21.70;99.90
21759;DHT22;11041;50.854;20.580;2023-09-08T08:33:30;21.70;99.90
21759;DHT22;11041;50.854;20.580;2023-09-08T08:35:59;21.70;99.90
21759;DHT22;11041;50.854;20.580;2023-09-08T08:38:26;21.80;99.90
21759;DHT22;11041;50.854;20.580;2023-09-08T08:40:53;21.80;99.90
21759;DHT22;11041;50.854;20.580;2023-09-08T08:43:21;21.80;99.90
21759;DHT22;11041;50.854;20.580;2023-09-08T08:45:49;21.90;99.90
21759;DHT22;11041;50.854;20.580;2023-09-08T08:48:21;21.90;99.90
21759;DHT22;11041;50.854;20.580;2023-09-08T08:50:51;22.00;99.90
21759;DHT22;11041;50.854;20.580;2023-09-08T08:53:21;22.10;99.90
21759;DHT22;11041;50.854;20.580;2023-09-08T08:55:50;22.20;99.90
21759;DHT22;11041;50.854;20.580;2023-09-08T08:58:22;22.20;99.90
21759;DHT22;11041;50.854;20.580;2023-09-08T09:00:54;22.30;99.90
21759;DHT22;11041;50.854;20.580;2023-09-08T09:03:26;22.30;99.90
21759;DHT22;11041;50.854;20.580;2023-09-08T09:05:54;22.30;99.90
21759;DHT22;11041;50.854;20.580;2023-09-08T09:08:23;22.50;99.90
21759;DHT22;11041;50.854;20.580;2023-09-08T09:10:52;22.50;99.90
21759;DHT22;11041;50.854;20.580;2023-09-08T09:13:18;22.60;99.90
21759;DHT22;11041;50.854;20.580;2023-09-08T09:15:45;22.70;99.90
21759;DHT22;11041;50.854;20.580;2023-09-08T09:18:14;22.60;99.90
21759;DHT22;11041;50.854;20.580;2023-09-08T09:20:53;22.70;99.90
21759;DHT22;11041;50.854;20.580;2023-09-08T09:23:34;22.70;99.90
21759;DHT22;11041;50.854;20.580;2023-09-08T09:26:03;22.80;99.90
21759;DHT22;11041;50.854;20.580;2023-09-08T09:28:35;22.80;99.90
21759;DHT22;11041;50.854;20.580;2023-09-08T09:31:14;22.90;99.90
21759;DHT22;11041;50.854;20.580;2023-09-08T09:33:43;22.90;99.90
21759;DHT22;11041;50.854;20.580;2023-09-08T09:36:09;22.90;99.90
21759;DHT22;11041;50.854;20.580;2023-09-08T09:38:47;23.00;99.90
21759;DHT22;11041;50.854;20.580;2023-09-08T09:41:14;23.30;99.90
21759;DHT22;11041;50.854;20.580;2023-09-08T09:43:42;23.30;99.90
21759;DHT22;11041;50.854;20.580;2023-09-08T09:46:10;23.30;99.90
21759;DHT22;11041;50.854;20.580;2023-09-08T09:48:37;23.30;99.90
21759;DHT22;11041;50.854;20.580;2023-09-08T09:51:16;23.30;99.90
21759;DHT22;11041;50.854;20.580;2023-09-08T09:53:45;23.30;99.90
21759;DHT22;11041;50.854;20.580;2023-09-08T09:56:15;23.30;99.90
21759;DHT22;11041;50.854;20.580;2023-09-08T09:58:45;23.30;99.90
21759;DHT22;11041;50.854;20.580;2023-09-08T10:01:15;23.30;99.90
21759;DHT22;11041;50.854;20.580;2023-09-08T10:03:44;23.30;99.90
21759;DHT22;11041;50.854;20.580;2023-09-08T10:06:15;23.50;99.90
21759;DHT22;11041;50.854;20.580;2023-09-08T10:08:43;23.60;99.90
21759;DHT22;11041;50.854;20.580;2023-09-08T10:11:13;23.60;99.90
21759;DHT22;11041;50.854;20.580;2023-09-08T10:13:47;23.60;99.90
21759;DHT22;11041;50.854;20.580;2023-09-08T10:16:21;23.70;99.90
21759;DHT22;11041;50.854;20.580;2023-09-08T10:18:49;23.80;99.90
21759;DHT22;11041;50.854;20.580;2023-09-08T10:21:21;23.80;99.90
21759;DHT22;11041;50.854;20.580;2023-09-08T10:24:28;23.70;99.90
21759;DHT22;11041;50.854;20.580;2023-09-08T10:27:08;23.80;99.90
21759;DHT22;11041;50.854;20.580;2023-09-08T10:29:38;23.90;99.90
21759;DHT22;11041;50.854;20.580;2023-09-08T10:32:07;24.00;99.90
21759;DHT22;11041;50.854;20.580;2023-09-08T10:34:39;24.00;99.90
21759;DHT22;11041;50.854;20.580;2023-09-08T10:37:25;24.00;99.90
21759;DHT22;11041;50.854;20.580;2023-09-08T10:39:59;24.10;99.90
21759;DHT22;11041;50.854;20.580;2023-09-08T10:43:09;24.10;99.90
21759;DHT22;11041;50.854;20.580;2023-09-08T10:45:39;24.00;99.90
21759;DHT22;11041;50.854;20.580;2023-09-08T10:48:07;24.00;99.90
21759;DHT22;11041;50.854;20.580;2023-09-08T10:50:42;24.20;99.90
21759;DHT22;11041;50.854;20.580;2023-09-08T10:53:15;24.20;99.90
21759;DHT22;11041;50.854;20.580;2023-09-08T10:55:46;24.40;99.90
21759;DHT22;11041;50.854;20.580;2023-09-08T10:58:37;24.40;99.90
21759;DHT22;11041;50.854;20.580;2023-09-08T11:01:07;24.50;99.90
21759;DHT22;11041;50.854;20.580;2023-09-08T11:06:09;24.90;99.90
21759;DHT22;11041;50.854;20.580;2023-09-08T11:08:46;24.80;99.90
21759;DHT22;11041;50.854;20.580;2023-09-08T11:11:15;24.90;99.90
21759;DHT22;11041;50.854;20.580;2023-09-08T11:13:43;25.10;99.90
21759;DHT22;11041;50.854;20.580;2023-09-08T11:16:14;25.10;99.90
21759;DHT22;11041;50.854;20.580;2023-09-08T11:18:51;25.50;99.90
21759;DHT22;11041;50.854;20.580;2023-09-08T11:21:21;25.50;99.90
21759;DHT22;11041;50.854;20.580;2023-09-08T11:23:50;25.50;99.90
21759;DHT22;11041;50.854;20.580;2023-09-08T11:26:17;25.60;99.90
21759;DHT22;11041;50.854;20.580;2023-09-08T11:28:46;25.50;99.90
21759;DHT22;11041;50.854;20.580;2023-09-08T11:31:16;25.40;99.90
21759;DHT22;11041;50.854;20.580;2023-09-08T11:33:48;25.60;99.90
21759;DHT22;11041;50.854;20.580;2023-09-08T11:36:18;25.60;99.90
21759;DHT22;11041;50.854;20.580;2023-09-08T11:38:46;25.70;99.90
21759;DHT22;11041;50.854;20.580;2023-09-08T11:41:13;25.70;99.90
21759;DHT22;11041;50.854;20.580;2023-09-08T11:43:41;25.80;99.90
21759;DHT22;11041;50.854;20.580;2023-09-08T11:46:13;26.00;99.90
21759;DHT22;11041;50.854;20.580;2023-09-08T11:48:42;26.00;99.90
21759;DHT22;11041;50.854;20.580;2023-09-08T11:51:09;25.80;99.90
21759;DHT22;11041;50.854;20.580;2023-09-08T11:53:40;26.00;99.90
21759;DHT22;11041;50.854;20.580;2023-09-08T11:56:10;25.90;99.90
21759;DHT22;11041;50.854;20.580;2023-09-08T11:58:40;26.00;99.90
21759;DHT22;11041;50.854;20.580;2023-09-08T12:01:11;26.00;99.90
21759;DHT22;11041;50.854;20.580;2023-09-08T12:03:59;26.20;99.90
21759;DHT22;11041;50.854;20.580;2023-09-08T12:06:29;26.30;99.90
21759;DHT22;11041;50.854;20.580;2023-09-08T12:09:00;26.40;99.90
21759;DHT22;11041;50.854;20.580;2023-09-08T12:11:33;26.50;99.90
21759;DHT22;11041;50.854;20.580;2023-09-08T12:14:07;26.90;99.90
21759;DHT22;11041;50.854;20.580;2023-09-08T12:16:38;26.80;99.90
21759;DHT22;11041;50.854;20.580;2023-09-08T12:19:07;26.50;99.90
21759;DHT22;11041;50.854;20.580;2023-09-08T12:21:54;26.40;99.90
21759;DHT22;11041;50.854;20.580;2023-09-08T12:32:35;27.10;99.90
21759;DHT22;11041;50.854;20.580;2023-09-08T12:35:04;27.10;99.90
21759;DHT22;11041;50.854;20.580;2023-09-08T12:37:41;27.10;99.90
21759;DHT22;11041;50.854;20.580;2023-09-08T12:40:09;27.30;99.90
21759;DHT22;11041;50.854;20.580;2023-09-08T12:42:36;27.30;99.90
21759;DHT22;11041;50.854;20.580;2023-09-08T12:45:06;26.70;99.90
21759;DHT22;11041;50.854;20.580;2023-09-08T12:47:34;27.00;99.90
21759;DHT22;11041;50.854;20.580;2023-09-08T12:50:05;27.20;99.90
21759;DHT22;11041;50.854;20.580;2023-09-08T12:52:35;27.50;99.90
21759;DHT22;11041;50.854;20.580;2023-09-08T12:55:04;27.60;99.90
21759;DHT22;11041;50.854;20.580;2023-09-08T12:57:35;27.70;99.90
21759;DHT22;11041;50.854;20.580;2023-09-08T13:00:06;27.80;99.90
21759;DHT22;11041;50.854;20.580;2023-09-08T13:02:34;28.10;99.90
21759;DHT22;11041;50.854;20.580;2023-09-08T13:05:04;28.20;99.90
21759;DHT22;11041;50.854;20.580;2023-09-08T13:07:37;28.30;99.90
21759;DHT22;11041;50.854;20.580;2023-09-08T13:10:05;28.30;99.90
21759;DHT22;11041;50.854;20.580;2023-09-08T13:12:35;28.50;99.90
21759;DHT22;11041;50.854;20.580;2023-09-08T13:15:03;28.50;99.90
21759;DHT22;11041;50.854;20.580;2023-09-08T13:17:30;28.40;99.90
21759;DHT22;11041;50.854;20.580;2023-09-08T13:20:01;27.90;99.90
21759;DHT22;11041;50.854;20.580;2023-09-08T13:22:42;27.70;99.90
21759;DHT22;11041;50.854;20.580;2023-09-08T13:25:12;27.60;99.90
21759;DHT22;11041;50.854;20.580;2023-09-08T13:27:45;27.50;99.90
21759;DHT22;11041;50.854;20.580;2023-09-08T13:30:18;27.50;99.90
21759;DHT22;11041;50.854;20.580;2023-09-08T13:32:48;27.40;99.90
21759;DHT22;11041;50.854;20.580;2023-09-08T13:35:16;27.50;99.90
21759;DHT22;11041;50.854;20.580;2023-09-08T13:37:43;27.50;99.90
21759;DHT22;11041;50.854;20.580;2023-09-08T13:40:12;27.80;99.90
21759;DHT22;11041;50.854;20.580;2023-09-08T13:42:40;28.10;99.90
21759;DHT22;11041;50.854;20.580;2023-09-08T13:45:08;28.40;99.90
21759;DHT22;11041;50.854;20.580;2023-09-08T13:47:35;28.60;99.90
21759;DHT22;11041;50.854;20.580;2023-09-08T13:50:05;28.70;99.90
21759;DHT22;11041;50.854;20.580;2023-09-08T13:52:36;28.20;99.90
21759;DHT22;11041;50.854;20.580;2023-09-08T13:55:06;28.40;99.90
21759;DHT22;11041;50.854;20.580;2023-09-08T13:57:36;28.40;99.90
21759;DHT22;11041;50.854;20.580;2023-09-08T14:00:04;28.50;99.90
21759;DHT22;11041;50.854;20.580;2023-09-08T14:02:37;28.60;99.90
21759;DHT22;11041;50.854;20.580;2023-09-08T14:05:05;28.80;99.90
21759;DHT22;11041;50.854;20.580;2023-09-08T14:07:33;28.50;99.90
21759;DHT22;11041;50.854;20.580;2023-09-08T14:10:00;27.90;99.90
21759;DHT22;11041;50.854;20.580;2023-09-08T14:12:36;27.80;99.90
21759;DHT22;11041;50.854;20.580;2023-09-08T14:15:04;27.90;99.90
21759;DHT22;11041;50.854;20.580;2023-09-08T14:17:32;27.80;99.90
21759;DHT22;11041;50.854;20.580;2023-09-08T14:19:59;27.60;99.90
21759;DHT22;11041;50.854;20.580;2023-09-08T14:22:30;27.50;99.90
21759;DHT22;11041;50.854;20.580;2023-09-08T14:25:03;27.40;99.90
21759;DHT22;11041;50.854;20.580;2023-09-08T14:27:33;27.50;99.90
21759;DHT22;11041;50.854;20.580;2023-09-08T14:30:03;26.80;99.90
21759;DHT22;11041;50.854;20.580;2023-09-08T14:32:32;26.50;99.90
21759;DHT22;11041;50.854;20.580;2023-09-08T14:35:00;26.40;99.90
21759;DHT22;11041;50.854;20.580;2023-09-08T14:37:30;26.40;99.90
21759;DHT22;11041;50.854;20.580;2023-09-08T14:39:59;26.40;99.90
21759;DHT22;11041;50.854;20.580;2023-09-08T14:42:26;26.30;99.90
21759;DHT22;11041;50.854;20.580;2023-09-08T14:44:56;26.20;99.90
21759;DHT22;11041;50.854;20.580;2023-09-08T14:47:28;26.30;99.90
21759;DHT22;11041;50.854;20.580;2023-09-08T14:49:59;26.20;99.90
21759;DHT22;11041;50.854;20.580;2023-09-08T14:52:27;26.10;99.90
21759;DHT22;11041;50.854;20.580;2023-09-08T14:54:54;26.10;99.90
21759;DHT22;11041;50.854;20.580;2023-09-08T14:57:21;26.00;99.90
21759;DHT22;11041;50.854;20.580;2023-09-08T14:59:52;25.90;99.90
21759;DHT22;11041;50.854;20.580;2023-09-08T15:02:22;25.80;99.90
21759;DHT22;11041;50.854;20.580;2023-09-08T15:04:49;25.60;99.90
21759;DHT22;11041;50.854;20.580;2023-09-08T15:07:17;25.70;99.90
21759;DHT22;11041;50.854;20.580;2023-09-08T15:09:47;25.60;99.90
21759;DHT22;11041;50.854;20.580;2023-09-08T15:12:16;25.50;99.90
21759;DHT22;11041;50.854;20.580;2023-09-08T15:14:47;25.50;99.90
21759;DHT22;11041;50.854;20.580;2023-09-08T15:17:15;25.50;99.90
21759;DHT22;11041;50.854;20.580;2023-09-08T15:19:44;25.30;99.90
21759;DHT22;11041;50.854;20.580;2023-09-08T15:22:11;25.40;99.90
21759;DHT22;11041;50.854;20.580;2023-09-08T15:24:40;25.40;99.90
21759;DHT22;11041;50.854;20.580;2023-09-08T15:27:07;25.50;99.90
21759;DHT22;11041;50.854;20.580;2023-09-08T15:29:36;25.50;99.90
21759;DHT22;11041;50.854;20.580;2023-09-08T15:32:07;25.50;99.90
21759;DHT22;11041;50.854;20.580;2023-09-08T15:34:36;25.50;99.90
21759;DHT22;11041;50.854;20.580;2023-09-08T15:37:03;25.50;99.90
21759;DHT22;11041;50.854;20.580;2023-09-08T15:39:31;25.50;99.90
21759;DHT22;11041;50.854;20.580;2023-09-08T15:41:58;25.40;99.90
21759;DHT22;11041;50.854;20.580;2023-09-08T15:44:27;25.20;99.90